Time;durP1;ratioP1;P1;durP2;ratioP2;P2;SDS_P1;SDS_P2;PMS_P1;PMS_P2;Temp;Humidity;BMP_temperature;BMP_pressure;BME280_temperature;BME280_humidity;BME280_pressure;Samples;Min_cycle;Max_cycle;Signal;HPM_P1;HPM_P2
2024/02/20 00:00:11;;;;;;;2.92;0.55;;;6.50;99.90;;;;;;5083730;28;20395;-76
2024/02/20 00:02:42;;;;;;;6.97;0.80;;;6.40;99.90;;;;;;5110219;28;20126;-76
2024/02/20 00:05:11;;;;;;;3.75;1.38;;;6.40;99.90;;;;;;5109378;28;20051;-75
2024/02/20 00:07:40;;;;;;;2.83;0.50;;;6.40;99.90;;;;;;5110019;28;20554;-76
2024/02/20 00:10:07;;;;;;;2.58;0.68;;;6.40;99.90;;;;;;5106902;28;20047;-76
2024/02/20 00:12:33;;;;;;;2.95;1.10;;;6.40;99.90;;;;;;5106298;28;20074;-76
2024/02/20 00:15:01;;;;;;;4.75;0.75;;;6.30;99.90;;;;;;5093385;28;20039;-76
2024/02/20 00:17:28;;;;;;;8.07;1.40;;;6.30;99.90;;;;;;5105628;28;20036;-76
2024/02/20 00:19:53;;;;;;;1.85;0.47;;;6.20;99.90;;;;;;5083174;28;20047;-76
2024/02/20 00:22:19;;;;;;;3.63;1.00;;;6.20;99.90;;;;;;5107145;28;20407;-76
2024/02/20 00:24:45;;;;;;;3.95;0.85;;;6.30;99.90;;;;;;5106514;28;20053;-76
2024/02/20 00:27:10;;;;;;;4.82;0.85;;;6.20;99.90;;;;;;5101716;28;20055;-76
2024/02/20 00:29:36;;;;;;;10.88;1.85;;;6.30;99.90;;;;;;5109016;28;20037;-76
2024/02/20 00:32:04;;;;;;;5.45;1.02;;;6.20;99.90;;;;;;5099905;28;20044;-76
2024/02/20 00:34:30;;;;;;;8.57;1.17;;;6.20;99.90;;;;;;5102950;28;20177;-76
2024/02/20 00:36:55;;;;;;;4.10;1.00;;;6.20;99.90;;;;;;5105554;28;20079;-76
2024/02/20 00:39:21;;;;;;;6.22;0.70;;;6.20;99.90;;;;;;5086722;28;20075;-76
2024/02/20 00:41:47;;;;;;;1.17;0.70;;;6.20;99.90;;;;;;5106246;28;20685;-76
2024/02/20 00:44:13;;;;;;;7.25;0.75;;;6.20;99.90;;;;;;5106254;28;20487;-75
2024/02/20 00:46:39;;;;;;;4.97;2.00;;;6.20;99.90;;;;;;5084032;28;20074;-76
2024/02/20 00:49:05;;;;;;;5.40;0.75;;;6.20;99.90;;;;;;5109180;28;20420;-75
2024/02/20 00:51:31;;;;;;;2.83;0.50;;;6.20;99.90;;;;;;5105654;28;20040;-76
2024/02/20 00:53:56;;;;;;;7.28;2.03;;;6.20;99.90;;;;;;5105526;28;20498;-76
2024/02/20 00:56:23;;;;;;;4.93;0.80;;;6.20;99.90;;;;;;5107786;28;20061;-75
2024/02/20 00:58:51;;;;;;;8.48;1.77;;;6.20;99.90;;;;;;5103286;28;20042;-76
2024/02/20 01:01:17;;;;;;;5.60;0.75;;;6.10;99.90;;;;;;5110757;28;20058;-76
2024/02/20 01:03:43;;;;;;;5.07;0.82;;;6.10;99.90;;;;;;5104028;28;20043;-76
2024/02/20 01:06:10;;;;;;;1.20;0.38;;;6.20;99.90;;;;;;5110347;28;20114;-76
2024/02/20 01:08:37;;;;;;;4.22;0.68;;;6.20;99.90;;;;;;5081132;28;20077;-76
2024/02/20 01:11:06;;;;;;;4.70;0.68;;;6.20;99.90;;;;;;5109950;28;20043;-76
2024/02/20 01:13:32;;;;;;;7.60;1.15;;;6.20;99.90;;;;;;5087566;28;20028;-76
2024/02/20 01:15:58;;;;;;;1.48;0.50;;;6.30;99.90;;;;;;5107947;28;20368;-76
2024/02/20 01:18:25;;;;;;;7.38;0.80;;;6.30;99.90;;;;;;5091425;28;20031;-76
2024/02/20 01:20:52;;;;;;;10.13;0.73;;;6.30;99.90;;;;;;5090573;28;20115;-75
2024/02/20 01:23:18;;;;;;;0.80;0.50;;;6.30;99.90;;;;;;5108162;28;20062;-76
2024/02/20 01:25:44;;;;;;;5.80;1.20;;;6.30;99.90;;;;;;5108495;28;20482;-76
2024/02/20 01:28:10;;;;;;;8.15;1.40;;;6.30;99.90;;;;;;5088873;28;20495;-76
2024/02/20 01:30:36;;;;;;;12.10;1.35;;;6.30;99.90;;;;;;5109205;28;20410;-76
2024/02/20 01:33:02;;;;;;;0.75;0.28;;;6.30;99.90;;;;;;5090035;28;20049;-76
2024/02/20 01:35:28;;;;;;;1.25;0.70;;;6.30;99.90;;;;;;5086316;28;20035;-76
2024/02/20 01:37:56;;;;;;;3.28;1.05;;;6.30;99.90;;;;;;5087186;28;20044;-75
2024/02/20 01:40:22;;;;;;;4.75;0.77;;;6.40;99.90;;;;;;5090678;28;20039;-76
2024/02/20 01:42:58;;;;;;;6.15;1.20;;;6.30;99.90;;;;;;5107463;28;20124;-76
2024/02/20 01:45:26;;;;;;;10.02;0.88;;;6.30;99.90;;;;;;5082601;28;20051;-76
2024/02/20 01:47:53;;;;;;;15.48;1.92;;;6.30;99.90;;;;;;5104846;28;20056;-74
2024/02/20 01:50:19;;;;;;;7.22;0.70;;;6.30;99.90;;;;;;5105317;28;20040;-76
2024/02/20 01:52:46;;;;;;;2.45;1.10;;;6.30;99.90;;;;;;5103983;28;20055;-75
2024/02/20 01:55:11;;;;;;;3.75;0.65;;;6.30;99.90;;;;;;5090224;28;20577;-76
2024/02/20 01:57:39;;;;;;;18.42;1.60;;;6.40;99.90;;;;;;5101272;28;20048;-76
2024/02/20 02:00:06;;;;;;;2.97;0.55;;;6.40;99.90;;;;;;5085336;28;20059;-76
2024/02/20 02:02:32;;;;;;;0.55;0.22;;;6.40;99.90;;;;;;5103529;28;20048;-76
2024/02/20 02:04:57;;;;;;;2.80;1.55;;;6.30;99.90;;;;;;5105660;28;20369;-76
2024/02/20 02:07:23;;;;;;;5.88;0.82;;;6.40;99.90;;;;;;5106027;28;20036;-75
2024/02/20 02:09:49;;;;;;;12.93;2.00;;;6.40;99.90;;;;;;5104908;28;20178;-76
2024/02/20 02:12:15;;;;;;;6.45;1.55;;;6.40;99.90;;;;;;5089750;28;20118;-76
2024/02/20 02:14:47;;;;;;;2.80;0.93;;;6.40;99.90;;;;;;5102153;28;20097;-76
2024/02/20 02:17:13;;;;;;;3.60;0.88;;;6.40;99.90;;;;;;5104926;28;20542;-76
2024/02/20 02:19:39;;;;;;;2.42;0.65;;;6.40;99.90;;;;;;5089217;28;20128;-76
2024/02/20 02:22:06;;;;;;;1.60;0.47;;;6.40;99.90;;;;;;5109424;28;20063;-76
2024/02/20 02:24:36;;;;;;;5.53;1.02;;;6.40;99.90;;;;;;5104679;28;20043;-76
2024/02/20 02:27:05;;;;;;;2.58;0.68;;;6.40;99.90;;;;;;5106919;28;20495;-76
2024/02/20 02:29:32;;;;;;;4.13;0.47;;;6.30;99.90;;;;;;5082602;28;20054;-76
2024/02/20 02:31:58;;;;;;;10.48;1.13;;;6.40;99.90;;;;;;5107802;28;20074;-76
2024/02/20 02:34:24;;;;;;;5.35;0.30;;;6.40;99.90;;;;;;5100952;28;20036;-78
2024/02/20 02:36:50;;;;;;;0.68;0.35;;;6.40;99.90;;;;;;5102833;28;20047;-76
2024/02/20 02:39:17;;;;;;;2.05;0.50;;;6.40;99.90;;;;;;5103383;28;20079;-76
2024/02/20 02:41:43;;;;;;;0.95;0.40;;;6.40;99.90;;;;;;5108301;28;20149;-74
2024/02/20 02:44:09;;;;;;;2.97;0.90;;;6.40;99.90;;;;;;5100643;28;20527;-76
2024/02/20 02:46:35;;;;;;;7.70;1.38;;;6.40;99.90;;;;;;5103959;28;20070;-75
2024/02/20 02:49:01;;;;;;;1.30;0.52;;;6.40;99.90;;;;;;5088678;28;20048;-77
2024/02/20 02:51:26;;;;;;;2.15;1.10;;;6.30;99.90;;;;;;5090767;28;20105;-77
2024/02/20 02:53:52;;;;;;;5.28;0.80;;;6.40;99.90;;;;;;5086496;28;20114;-76
2024/02/20 02:56:18;;;;;;;7.20;1.08;;;6.30;99.90;;;;;;5104013;28;20036;-76
2024/02/20 02:58:43;;;;;;;3.50;1.17;;;6.20;99.90;;;;;;5104517;28;20036;-76
2024/02/20 03:01:10;;;;;;;5.45;0.90;;;6.30;99.90;;;;;;5108050;28;20039;-76
2024/02/20 03:03:39;;;;;;;2.75;0.90;;;6.30;99.90;;;;;;5108102;28;20126;-75
2024/02/20 03:06:06;;;;;;;3.45;0.52;;;6.30;99.90;;;;;;5077950;28;20443;-76
2024/02/20 03:08:33;;;;;;;4.07;0.63;;;6.30;99.90;;;;;;5098962;28;20036;-76
2024/02/20 03:10:59;;;;;;;0.75;0.20;;;6.30;99.90;;;;;;5101553;28;20036;-76
2024/02/20 03:13:25;;;;;;;3.40;0.80;;;6.30;99.90;;;;;;5107089;28;20031;-76
2024/02/20 03:15:51;;;;;;;12.93;0.88;;;6.20;99.90;;;;;;5102389;28;20249;-77
2024/02/20 03:18:16;;;;;;;14.05;0.80;;;6.20;99.90;;;;;;5106534;28;20031;-76
2024/02/20 03:20:43;;;;;;;0.82;0.50;;;6.20;99.90;;;;;;5101938;28;20071;-76
2024/02/20 03:23:09;;;;;;;10.98;0.55;;;6.20;99.90;;;;;;5102397;28;20043;-77
2024/02/20 03:25:35;;;;;;;1.98;0.43;;;6.10;99.90;;;;;;5102214;28;20384;-77
2024/02/20 03:28:03;;;;;;;6.20;0.80;;;6.10;99.90;;;;;;5103919;28;20044;-76
2024/02/20 03:30:29;;;;;;;3.10;0.52;;;6.10;99.90;;;;;;5106091;28;20117;-76
2024/02/20 03:32:55;;;;;;;3.60;0.65;;;6.10;99.90;;;;;;5089725;28;20071;-76
2024/02/20 03:35:21;;;;;;;0.35;0.10;;;6.10;99.90;;;;;;5108739;28;20035;-76
2024/02/20 03:37:51;;;;;;;1.45;0.40;;;6.10;99.90;;;;;;5108884;28;20039;-76
2024/02/20 03:40:17;;;;;;;0.88;0.38;;;6.10;99.90;;;;;;5107096;28;20120;-76
2024/02/20 03:42:43;;;;;;;3.42;0.57;;;6.10;99.90;;;;;;5107482;28;20043;-74
2024/02/20 03:45:09;;;;;;;0.95;0.35;;;6.10;99.90;;;;;;5105303;28;20130;-76
2024/02/20 03:47:35;;;;;;;2.28;0.65;;;6.10;99.90;;;;;;5103282;28;20054;-77
2024/02/20 03:50:01;;;;;;;1.13;0.40;;;6.20;99.90;;;;;;5109565;28;20055;-78
2024/02/20 03:52:26;;;;;;;1.98;0.40;;;6.10;99.90;;;;;;5088498;28;20463;-77
2024/02/20 03:54:52;;;;;;;22.02;0.90;;;6.00;99.90;;;;;;5111254;28;20035;-76
2024/02/20 03:57:18;;;;;;;1.60;0.73;;;6.00;99.90;;;;;;5105366;28;20035;-76
2024/02/20 03:59:43;;;;;;;8.80;1.75;;;6.00;99.90;;;;;;5105149;28;20044;-76
2024/02/20 04:02:10;;;;;;;1.17;0.45;;;6.00;99.90;;;;;;5109989;28;20039;-76
2024/02/20 04:04:35;;;;;;;0.35;0.35;;;5.90;99.90;;;;;;5106992;28;20040;-76
2024/02/20 04:07:04;;;;;;;0.80;0.40;;;5.90;99.90;;;;;;5105296;28;20058;-76
2024/02/20 04:09:33;;;;;;;7.68;1.02;;;5.90;99.90;;;;;;5106651;28;20071;-76
2024/02/20 04:11:59;;;;;;;4.65;0.77;;;5.90;99.90;;;;;;5107882;28;20027;-76
2024/02/20 04:14:24;;;;;;;0.90;0.75;;;5.90;99.90;;;;;;5109060;28;20100;-76
2024/02/20 04:16:50;;;;;;;3.38;0.55;;;5.90;99.90;;;;;;5089455;28;20043;-76
2024/02/20 04:19:16;;;;;;;8.23;0.93;;;5.90;99.90;;;;;;5108720;28;20039;-76
2024/02/20 04:21:42;;;;;;;3.10;0.82;;;5.90;99.90;;;;;;5092563;28;20040;-76
2024/02/20 04:24:07;;;;;;;1.45;0.75;;;5.80;99.90;;;;;;5091421;28;20035;-76
2024/02/20 04:26:33;;;;;;;0.50;0.20;;;5.90;99.90;;;;;;5107727;28;20045;-76
2024/02/20 04:28:59;;;;;;;3.55;1.23;;;5.90;99.90;;;;;;5090553;28;20028;-76
2024/02/20 04:31:43;;;;;;;4.70;0.57;;;5.90;99.90;;;;;;5108809;28;20184;-76
2024/02/20 04:34:27;;;;;;;2.92;0.30;;;5.90;99.90;;;;;;5106765;28;20640;-76
2024/02/20 04:37:11;;;;;;;1.97;0.83;;;5.90;99.90;;;;;;5106929;28;20100;-76
2024/02/20 04:39:55;;;;;;;1.90;0.10;;;5.90;99.90;;;;;;5104876;28;20038;-76
2024/02/20 04:42:39;;;;;;;1.87;0.50;;;5.90;99.90;;;;;;5099128;28;20060;-76
2024/02/20 04:45:23;;;;;;;2.60;0.87;;;5.90;99.90;;;;;;5104781;28;20045;-75
2024/02/20 04:48:08;;;;;;;3.00;0.83;;;6.00;99.90;;;;;;5105427;28;20099;-76
2024/02/20 04:50:53;;;;;;;5.20;0.27;;;5.90;99.90;;;;;;5107132;28;20038;-76
2024/02/20 04:53:38;;;;;;;5.75;1.23;;;5.90;99.90;;;;;;5104181;28;20061;-76
2024/02/20 04:56:22;;;;;;;0.57;0.25;;;6.00;99.90;;;;;;5109788;28;20379;-76
2024/02/20 04:59:06;;;;;;;1.15;0.22;;;6.00;99.90;;;;;;5103428;28;20462;-76
2024/02/20 05:01:51;;;;;;;7.28;0.98;;;6.00;99.90;;;;;;5107272;28;20119;-76
2024/02/20 05:04:36;;;;;;;8.20;0.68;;;6.10;99.90;;;;;;5106852;28;20043;-76
2024/02/20 05:07:20;;;;;;;3.47;0.85;;;6.10;99.90;;;;;;5110395;28;20038;-76
2024/02/20 05:10:06;;;;;;;7.83;0.97;;;6.00;99.90;;;;;;5104823;28;20093;-76
2024/02/20 05:12:51;;;;;;;5.18;0.25;;;6.10;99.90;;;;;;5109295;28;20089;-76
2024/02/20 05:15:35;;;;;;;1.92;0.40;;;6.20;99.90;;;;;;5109713;28;20026;-76
2024/02/20 05:18:00;;;;;;;18.27;1.77;;;6.20;99.90;;;;;;5091646;28;20032;-76
2024/02/20 05:20:26;;;;;;;6.13;1.42;;;6.20;99.90;;;;;;5085183;28;20040;-76
2024/02/20 05:22:52;;;;;;;2.40;0.75;;;6.30;99.90;;;;;;5106751;28;20040;-76
2024/02/20 05:25:17;;;;;;;1.80;0.60;;;6.30;99.90;;;;;;5101141;28;20360;-76
2024/02/20 05:27:43;;;;;;;3.95;0.50;;;6.30;99.90;;;;;;5108768;28;20044;-76
2024/02/20 05:30:10;;;;;;;2.38;0.85;;;6.30;99.90;;;;;;5105501;28;20086;-76
2024/02/20 05:32:37;;;;;;;4.03;0.38;;;6.40;99.90;;;;;;5106310;28;20376;-76
2024/02/20 05:35:05;;;;;;;3.85;0.35;;;6.40;99.90;;;;;;5107385;28;20101;-77
2024/02/20 05:37:31;;;;;;;3.67;0.20;;;6.40;99.90;;;;;;5089155;28;20069;-76
2024/02/20 05:39:57;;;;;;;1.77;0.40;;;6.40;99.90;;;;;;5105268;28;20043;-75
2024/02/20 05:42:22;;;;;;;2.08;1.00;;;6.40;99.90;;;;;;5091115;28;20047;-76
2024/02/20 05:44:48;;;;;;;1.42;0.30;;;6.40;99.90;;;;;;5103883;28;20495;-76
2024/02/20 05:47:14;;;;;;;2.40;0.70;;;6.40;99.90;;;;;;5103478;28;20047;-75
2024/02/20 05:49:40;;;;;;;2.70;0.57;;;6.40;99.90;;;;;;5104511;28;20055;-76
2024/02/20 05:52:06;;;;;;;10.18;0.57;;;6.40;99.90;;;;;;5104216;28;20067;-76
2024/02/20 05:54:33;;;;;;;1.95;0.75;;;6.50;99.90;;;;;;5106133;28;20464;-76
2024/02/20 05:56:59;;;;;;;2.38;0.75;;;6.50;99.90;;;;;;5103507;28;20097;-77
2024/02/20 05:59:24;;;;;;;16.85;1.20;;;6.50;99.90;;;;;;5107990;28;20035;-76
2024/02/20 06:01:50;;;;;;;5.88;0.63;;;6.50;99.90;;;;;;5103487;28;20043;-77
2024/02/20 06:04:16;;;;;;;7.32;0.90;;;6.60;99.90;;;;;;5108235;28;20118;-76
2024/02/20 06:06:42;;;;;;;1.98;0.30;;;6.50;99.90;;;;;;5103532;28;20392;-76
2024/02/20 06:09:08;;;;;;;2.95;0.47;;;6.50;99.90;;;;;;5104678;28;20583;-76
2024/02/20 06:11:34;;;;;;;3.22;0.60;;;6.50;99.90;;;;;;5103757;28;20138;-76
2024/02/20 06:14:02;;;;;;;6.40;0.73;;;6.50;99.90;;;;;;5107826;28;20039;-75
2024/02/20 06:16:28;;;;;;;3.17;0.50;;;6.50;99.90;;;;;;5107254;28;20036;-76
2024/02/20 06:18:54;;;;;;;4.20;0.45;;;6.50;99.90;;;;;;5104569;28;20062;-76
2024/02/20 06:21:21;;;;;;;3.08;0.55;;;6.40;99.90;;;;;;5105937;28;20039;-76
2024/02/20 06:23:47;;;;;;;3.70;0.57;;;6.50;99.90;;;;;;5084054;28;20130;-77
2024/02/20 06:26:17;;;;;;;6.03;0.82;;;6.40;99.90;;;;;;5085475;28;20506;-76
2024/02/20 06:28:43;;;;;;;2.20;0.57;;;6.40;99.90;;;;;;5091346;28;20043;-76
2024/02/20 06:31:08;;;;;;;10.48;0.60;;;6.40;99.90;;;;;;5088999;28;20042;-76
2024/02/20 06:33:34;;;;;;;7.32;1.10;;;6.50;99.90;;;;;;5107686;28;20126;-77
2024/02/20 06:36:00;;;;;;;5.85;1.35;;;6.60;99.90;;;;;;5106172;28;20451;-76
2024/02/20 06:38:31;;;;;;;7.60;0.80;;;6.70;99.90;;;;;;5090794;28;20471;-76
2024/02/20 06:40:58;;;;;;;4.68;0.65;;;6.70;99.90;;;;;;5081250;28;20040;-75
2024/02/20 06:43:23;;;;;;;5.53;0.52;;;6.80;99.90;;;;;;5103596;28;20039;-76
2024/02/20 06:45:49;;;;;;;4.25;0.85;;;6.70;99.90;;;;;;5107346;28;20042;-75
2024/02/20 06:48:15;;;;;;;4.72;0.88;;;6.80;99.90;;;;;;5103532;28;20113;-76
2024/02/20 06:50:40;;;;;;;1.55;0.30;;;6.90;99.90;;;;;;5089710;28;20123;-76
2024/02/20 06:53:06;;;;;;;2.33;0.40;;;6.90;99.90;;;;;;5104955;28;20043;-76
2024/02/20 06:55:32;;;;;;;2.78;0.22;;;6.90;99.90;;;;;;5103460;28;20483;-76
2024/02/20 06:57:58;;;;;;;3.28;0.68;;;6.90;99.90;;;;;;5100564;28;20056;-76
2024/02/20 07:00:25;;;;;;;8.57;0.63;;;7.00;99.90;;;;;;5107817;28;20047;-76
2024/02/20 07:02:51;;;;;;;2.28;0.45;;;7.00;99.90;;;;;;5102755;28;20317;-76
2024/02/20 07:05:17;;;;;;;2.92;0.35;;;7.10;99.90;;;;;;5105910;28;20585;-76
2024/02/20 07:07:44;;;;;;;1.40;0.28;;;7.10;99.90;;;;;;5109630;28;20123;-76
2024/02/20 07:10:10;;;;;;;5.53;0.85;;;7.20;99.90;;;;;;5108161;28;20036;-76
2024/02/20 07:12:36;;;;;;;6.55;0.38;;;7.20;99.90;;;;;;5109509;28;20028;-76
2024/02/20 07:15:03;;;;;;;1.00;0.20;;;7.20;99.90;;;;;;5111807;28;20092;-76
2024/02/20 07:17:29;;;;;;;2.58;0.57;;;7.20;99.90;;;;;;5107988;28;20043;-75
2024/02/20 07:19:55;;;;;;;3.28;0.98;;;7.30;99.90;;;;;;5110512;28;20043;-76
2024/02/20 07:22:21;;;;;;;3.72;0.93;;;7.30;99.90;;;;;;5083724;28;20499;-77
2024/02/20 07:24:47;;;;;;;4.80;0.82;;;7.30;99.90;;;;;;5103501;28;20051;-77
2024/02/20 07:27:13;;;;;;;4.22;0.90;;;7.30;99.90;;;;;;5112508;28;20060;-76
2024/02/20 07:29:43;;;;;;;2.80;0.52;;;7.40;99.90;;;;;;5086386;28;20386;-75
2024/02/20 07:32:10;;;;;;;2.95;1.00;;;7.40;99.90;;;;;;5111347;28;20035;-74
2024/02/20 07:34:38;;;;;;;7.72;0.70;;;7.40;99.90;;;;;;5104417;28;20081;-76
2024/02/20 07:37:04;;;;;;;4.35;0.77;;;7.40;99.90;;;;;;5108486;28;20550;-76
2024/02/20 07:39:30;;;;;;;2.83;0.57;;;7.50;99.90;;;;;;5104572;28;20040;-76
2024/02/20 07:41:56;;;;;;;3.10;0.93;;;7.50;99.90;;;;;;5108647;28;20422;-76
2024/02/20 07:44:22;;;;;;;1.15;0.30;;;7.50;99.90;;;;;;5106858;28;20040;-76
2024/02/20 07:46:48;;;;;;;2.13;0.75;;;7.60;99.90;;;;;;5108642;28;20069;-76
2024/02/20 07:49:14;;;;;;;3.35;0.73;;;7.60;99.90;;;;;;5108079;28;20051;-76
2024/02/20 07:51:40;;;;;;;1.30;0.63;;;7.60;99.90;;;;;;5109544;28;20035;-77
2024/02/20 07:54:06;;;;;;;3.72;1.17;;;7.70;99.90;;;;;;5100817;28;20032;-76
2024/02/20 07:56:31;;;;;;;1.20;0.75;;;7.70;99.90;;;;;;5105769;28;20131;-76
2024/02/20 07:58:57;;;;;;;9.85;0.95;;;7.70;99.90;;;;;;5080862;28;20040;-76
2024/02/20 08:01:24;;;;;;;2.53;0.55;;;7.80;99.90;;;;;;5093173;28;20031;-76
2024/02/20 08:03:54;;;;;;;3.38;0.50;;;7.80;99.90;;;;;;5109731;28;20103;-76
2024/02/20 08:06:20;;;;;;;1.85;0.90;;;7.80;99.90;;;;;;5110907;28;20043;-75
2024/02/20 08:08:46;;;;;;;4.20;0.47;;;7.80;99.90;;;;;;5109028;28;20047;-77
2024/02/20 08:11:13;;;;;;;10.20;0.80;;;7.80;99.90;;;;;;5111375;28;20036;-75
2024/02/20 08:13:42;;;;;;;1.17;0.45;;;7.90;99.90;;;;;;5108108;28;20043;-77
2024/02/20 08:16:12;;;;;;;5.97;1.15;;;7.90;99.90;;;;;;5087735;28;20399;-76
2024/02/20 08:18:41;;;;;;;0.88;0.30;;;8.00;99.90;;;;;;5108842;28;20043;-77
2024/02/20 08:21:10;;;;;;;3.60;0.60;;;8.00;99.90;;;;;;5108283;28;20082;-76
2024/02/20 08:23:43;;;;;;;2.83;0.60;;;8.00;99.90;;;;;;5105697;28;20036;-75
2024/02/20 08:26:09;;;;;;;5.70;1.23;;;8.00;99.90;;;;;;5087109;28;20055;-76
2024/02/20 08:28:35;;;;;;;0.95;0.57;;;8.10;99.90;;;;;;5108238;28;20391;-76
2024/02/20 08:31:01;;;;;;;2.28;0.40;;;8.10;99.90;;;;;;5102524;28;20115;-76
2024/02/20 08:33:26;;;;;;;3.92;0.73;;;8.20;99.90;;;;;;5107268;28;20040;-75
2024/02/20 08:35:53;;;;;;;1.85;0.77;;;8.20;99.90;;;;;;5107309;28;20024;-76
2024/02/20 08:38:19;;;;;;;3.08;0.55;;;8.30;99.90;;;;;;5084841;28;20051;-76
2024/02/20 08:40:45;;;;;;;6.97;1.42;;;8.30;99.90;;;;;;5102612;28;20099;-76
2024/02/20 08:43:11;;;;;;;0.85;0.35;;;8.40;99.90;;;;;;5106405;28;20047;-76
2024/02/20 08:45:37;;;;;;;3.80;1.58;;;8.50;99.90;;;;;;5085286;28;20052;-76
2024/02/20 08:48:03;;;;;;;2.42;0.73;;;8.50;99.90;;;;;;5091439;28;20494;-76
2024/02/20 08:50:29;;;;;;;2.92;0.65;;;8.60;99.90;;;;;;5105542;28;20056;-77
2024/02/20 08:52:55;;;;;;;1.23;0.68;;;8.70;99.90;;;;;;5088382;28;20032;-76
2024/02/20 08:55:21;;;;;;;7.40;1.40;;;8.80;99.90;;;;;;5108140;28;20495;-76
2024/02/20 08:57:46;;;;;;;9.90;1.13;;;8.80;99.90;;;;;;5094388;28;20040;-75
2024/02/20 09:00:13;;;;;;;1.10;0.73;;;8.90;99.90;;;;;;5095136;28;20054;-76
2024/02/20 09:02:40;;;;;;;2.50;0.73;;;9.00;99.90;;;;;;5091091;28;20590;-76
2024/02/20 09:05:08;;;;;;;9.15;1.15;;;9.10;99.90;;;;;;5107143;28;20116;-76
2024/02/20 09:07:34;;;;;;;11.50;1.25;;;9.10;99.90;;;;;;5106196;28;20844;-75
2024/02/20 09:10:01;;;;;;;6.82;1.73;;;9.20;99.90;;;;;;5089532;28;20036;-76
2024/02/20 09:12:26;;;;;;;11.25;1.85;;;9.30;99.90;;;;;;5085058;28;20170;-76
2024/02/20 09:14:52;;;;;;;3.42;0.95;;;9.30;99.90;;;;;;5109058;28;20126;-76
2024/02/20 09:17:18;;;;;;;12.18;1.42;;;9.30;99.90;;;;;;5086073;28;20032;-76
2024/02/20 09:19:44;;;;;;;3.38;1.10;;;9.40;99.90;;;;;;5105238;28;20097;-76
2024/02/20 09:22:10;;;;;;;2.92;0.85;;;9.40;99.90;;;;;;5090513;28;20118;-76
2024/02/20 09:24:37;;;;;;;2.97;1.15;;;9.40;99.90;;;;;;5104617;28;20043;-77
2024/02/20 09:27:03;;;;;;;10.55;1.50;;;9.50;99.90;;;;;;5101944;28;20036;-76
2024/02/20 09:29:31;;;;;;;7.95;1.98;;;9.40;99.90;;;;;;5083207;28;20352;-76
2024/02/20 09:31:58;;;;;;;6.60;1.92;;;9.40;99.90;;;;;;5108187;28;20560;-77
2024/02/20 09:34:24;;;;;;;6.43;1.83;;;9.50;99.90;;;;;;5105512;28;20039;-76
2024/02/20 09:36:50;;;;;;;5.07;1.88;;;9.50;99.90;;;;;;5107550;28;20032;-74
2024/02/20 09:39:15;;;;;;;5.65;1.60;;;9.50;99.90;;;;;;5103234;28;20148;-73
2024/02/20 09:41:42;;;;;;;4.65;1.13;;;9.50;99.90;;;;;;5105188;28;20044;-74
2024/02/20 09:44:08;;;;;;;8.13;1.58;;;9.50;99.90;;;;;;5107990;28;20122;-75
2024/02/20 09:46:44;;;;;;;4.68;2.08;;;9.50;99.90;;;;;;5086341;28;20146;-75
2024/02/20 09:49:10;;;;;;;6.38;1.45;;;9.60;99.90;;;;;;5104364;28;20047;-75
2024/02/20 09:51:37;;;;;;;5.45;2.47;;;9.50;99.90;;;;;;5107437;28;20036;-75
2024/02/20 09:54:04;;;;;;;2.53;1.35;;;9.60;99.90;;;;;;5101582;28;20339;-75
2024/02/20 09:56:35;;;;;;;7.70;1.25;;;9.60;99.90;;;;;;5107150;28;20039;-75
2024/02/20 09:59:01;;;;;;;6.65;1.67;;;9.60;99.90;;;;;;5098044;28;20043;-74
2024/02/20 10:01:28;;;;;;;10.40;2.00;;;9.60;99.90;;;;;;5104925;28;20097;-75
2024/02/20 10:03:57;;;;;;;6.88;1.38;;;9.70;99.90;;;;;;5103066;28;20136;-75
2024/02/20 10:06:24;;;;;;;5.18;0.90;;;9.70;99.90;;;;;;5106277;28;20040;-75
2024/02/20 10:08:52;;;;;;;6.25;2.05;;;9.80;99.90;;;;;;5103607;28;20035;-75
2024/02/20 10:11:17;;;;;;;7.97;1.85;;;9.80;99.90;;;;;;5107019;28;20054;-74
2024/02/20 10:13:44;;;;;;;15.10;2.40;;;9.80;99.90;;;;;;5106642;28;20036;-75
2024/02/20 10:16:15;;;;;;;5.85;1.35;;;9.80;99.90;;;;;;5105138;28;20036;-75
2024/02/20 10:18:42;;;;;;;10.02;1.58;;;9.80;99.90;;;;;;5103886;28;20456;-75
2024/02/20 10:21:08;;;;;;;3.30;1.40;;;9.80;99.90;;;;;;5104817;28;20048;-74
2024/02/20 10:23:34;;;;;;;5.20;1.63;;;9.90;99.90;;;;;;5090649;28;20345;-74
2024/02/20 10:26:00;;;;;;;8.13;1.63;;;9.90;99.90;;;;;;5105555;28;20051;-75
2024/02/20 10:28:26;;;;;;;4.97;2.22;;;9.90;99.90;;;;;;5106888;28;20036;-76
2024/02/20 10:30:54;;;;;;;5.40;1.88;;;9.90;99.90;;;;;;5107179;28;20080;-75
2024/02/20 10:33:19;;;;;;;7.28;1.85;;;10.00;99.90;;;;;;5107344;28;20127;-75
2024/02/20 10:35:45;;;;;;;6.90;1.23;;;10.00;99.90;;;;;;5089605;28;20670;-75
2024/02/20 10:38:12;;;;;;;3.92;1.38;;;10.10;99.90;;;;;;5107493;28;20054;-75
2024/02/20 10:40:38;;;;;;;6.80;1.23;;;10.20;99.90;;;;;;5076153;28;20142;-75
2024/02/20 10:43:06;;;;;;;13.10;1.92;;;10.30;99.90;;;;;;5091084;28;20057;-75
2024/02/20 10:45:32;;;;;;;15.80;1.90;;;10.50;99.90;;;;;;5104566;28;20127;-75
2024/02/20 10:48:03;;;;;;;3.10;1.23;;;10.60;99.90;;;;;;5105891;28;20475;-75
2024/02/20 10:50:31;;;;;;;1.40;0.73;;;10.70;99.90;;;;;;5103602;28;20132;-75
2024/02/20 10:53:00;;;;;;;3.50;1.08;;;10.80;99.90;;;;;;5105963;28;20436;-74
2024/02/20 10:55:29;;;;;;;3.85;1.17;;;11.00;99.90;;;;;;5082052;28;20441;-75
2024/02/20 10:57:58;;;;;;;10.80;1.77;;;11.10;99.90;;;;;;5107805;28;20114;-75
2024/02/20 11:00:25;;;;;;;12.32;2.42;;;11.10;99.90;;;;;;5104244;28;20039;-76
2024/02/20 11:02:52;;;;;;;10.43;1.67;;;11.10;99.90;;;;;;5106980;28;20467;-75
2024/02/20 11:05:18;;;;;;;3.53;1.08;;;11.00;99.90;;;;;;5103910;28;20047;-76
2024/02/20 11:07:44;;;;;;;4.47;1.40;;;11.00;99.90;;;;;;5105153;28;20471;-75
2024/02/20 11:10:19;;;;;;;4.63;1.33;;;11.00;99.90;;;;;;5105234;28;20050;-75
2024/02/20 11:12:45;;;;;;;;;;;11.00;99.90;;;;;;5088132;28;20039;-75
2024/02/20 11:15:21;;;;;;;6.18;1.38;;;11.00;99.90;;;;;;5106678;28;19920;-76
2024/02/20 11:17:48;;;;;;;2.40;1.30;;;11.00;99.90;;;;;;5085834;28;20811;-76
2024/02/20 11:20:18;;;;;;;8.32;1.42;;;11.00;99.90;;;;;;5100959;28;20043;-76
2024/02/20 11:22:45;;;;;;;8.80;1.52;;;11.00;99.90;;;;;;5100051;28;20471;-75
2024/02/20 11:25:15;;;;;;;6.03;1.40;;;11.00;99.90;;;;;;5105472;28;20032;-76
2024/02/20 11:27:43;;;;;;;3.95;1.10;;;11.10;99.90;;;;;;5086504;28;20044;-76
2024/02/20 11:30:14;;;;;;;6.03;1.40;;;11.10;99.90;;;;;;5078612;28;20379;-76
2024/02/20 11:32:40;;;;;;;4.70;1.17;;;11.10;99.90;;;;;;5080423;28;20036;-75
2024/02/20 11:35:21;;;;;;;4.00;1.33;;;11.20;99.90;;;;;;5106133;28;20398;-76
2024/02/20 11:37:48;;;;;;;8.13;1.58;;;11.20;99.90;;;;;;5088358;28;20046;-76
2024/02/20 11:40:28;;;;;;;3.10;0.65;;;11.20;99.90;;;;;;5101022;28;20727;-76
2024/02/20 11:42:58;;;;;;;6.60;1.58;;;11.20;99.90;;;;;;5100424;28;20039;-75
2024/02/20 11:45:25;;;;;;;5.80;0.93;;;11.20;99.90;;;;;;5106470;28;20048;-75
2024/02/20 11:48:08;;;;;;;9.75;2.15;;;11.20;99.90;;;;;;5102075;28;20036;-76
2024/02/20 11:50:37;;;;;;;8.27;1.20;;;11.10;99.90;;;;;;5106578;28;20122;-75
2024/02/20 11:53:12;;;;;;;6.25;0.90;;;11.10;99.90;;;;;;5108062;28;20586;-75
2024/02/20 11:55:49;;;;;;;4.35;0.93;;;11.10;99.90;;;;;;5107154;28;20442;-75
2024/02/20 11:58:16;;;;;;;3.85;1.70;;;11.10;99.90;;;;;;5090361;28;20075;-76
2024/02/20 12:00:43;;;;;;;6.57;1.38;;;11.10;99.90;;;;;;5089102;28;20043;-75
2024/02/20 12:03:09;;;;;;;3.00;1.27;;;11.10;99.90;;;;;;5081315;28;20051;-75
2024/02/20 12:05:42;;;;;;;1.63;0.63;;;11.10;99.90;;;;;;5107112;28;20454;-75
2024/02/20 12:08:16;;;;;;;9.57;1.85;;;11.10;99.90;;;;;;5104660;28;20067;-75
2024/02/20 12:10:46;;;;;;;5.20;1.13;;;11.10;99.90;;;;;;5094850;28;20048;-76
2024/02/20 12:13:18;;;;;;;5.22;1.20;;;11.10;99.90;;;;;;5102910;28;20122;-75
2024/02/20 12:15:49;;;;;;;3.53;0.90;;;11.00;99.90;;;;;;5108303;28;20114;-76
2024/02/20 12:18:25;;;;;;;8.48;1.25;;;11.00;99.90;;;;;;5103214;28;20040;-75
2024/02/20 12:20:52;;;;;;;7.50;1.48;;;11.00;99.90;;;;;;5106563;28;20059;-75
2024/02/20 12:23:19;;;;;;;13.65;1.17;;;11.00;99.90;;;;;;5105404;28;20066;-76
2024/02/20 12:25:46;;;;;;;15.43;1.73;;;11.00;99.90;;;;;;5109013;28;20043;-75
2024/02/20 12:28:11;;;;;;;12.15;1.42;;;11.00;99.90;;;;;;5108877;28;20089;-75
2024/02/20 12:30:40;;;;;;;6.82;1.95;;;11.10;99.90;;;;;;5107419;28;20043;-76
2024/02/20 12:33:07;;;;;;;3.15;0.82;;;11.00;99.90;;;;;;5090954;28;20097;-76
2024/02/20 12:35:32;;;;;;;5.80;1.42;;;11.00;99.90;;;;;;5093104;28;20396;-76
2024/02/20 12:37:58;;;;;;;9.20;1.58;;;11.10;99.90;;;;;;5108329;28;20040;-74
2024/02/20 12:40:25;;;;;;;5.30;0.85;;;11.10;99.90;;;;;;5089246;28;20071;-75
2024/02/20 12:42:51;;;;;;;13.25;1.83;;;11.10;99.90;;;;;;5109023;28;20191;-75
2024/02/20 12:45:17;;;;;;;4.28;1.05;;;11.20;99.90;;;;;;5091578;28;20032;-75
2024/02/20 12:47:43;;;;;;;2.60;0.68;;;11.30;99.90;;;;;;5109074;28;20118;-75
2024/02/20 12:50:08;;;;;;;13.68;2.13;;;11.40;99.90;;;;;;5103836;28;20044;-75
2024/02/20 12:52:34;;;;;;;3.53;0.98;;;11.50;99.90;;;;;;5083068;28;20382;-75
2024/02/20 12:55:02;;;;;;;7.55;1.25;;;11.50;99.90;;;;;;5089506;28;20034;-75
2024/02/20 12:57:28;;;;;;;5.53;1.25;;;11.60;99.90;;;;;;5110311;28;20043;-76